This is the latest recevied weather packets stored in our database for station/object KB3HLL. If no packets are shown the sender has not sent any weather packets the latest 1 day(s).
| Time | Temp. | Humidity | Pressure | Rain* | Wind** | Luminosity | Snow |
|---|---|---|---|---|---|---|---|
| 1836274676 | 14.44° C | 71% | 1021 hPa | 0 mm | 1.79 m/s, 333° | 0 W/m² | - |
| 1836274526 | 14.44° C | 72% | 1021 hPa | 0 mm | 1.34 m/s, 338° | 0 W/m² | - |
| 1836274375 | 14.44° C | 72% | 1021 hPa | 0 mm | 2.24 m/s, 342° | 0 W/m² | - |
| 1836274226 | 14.44° C | 72% | 1021 hPa | 0 mm | 0.45 m/s, 339° | 0 W/m² | - |
| 1836274075 | 14.44° C | 72% | 1021 hPa | 0 mm | 0.89 m/s, 2° | 0 W/m² | - |
| 1778042777 | 18.33° C | 67% | 1010.7 hPa | 0 mm | 1.34 m/s, 187° | 0 W/m² | - |
| 1778042478 | 18.33° C | 68% | 1010.8 hPa | 0 mm | 1.79 m/s, 186° | 0 W/m² | - |
| 1778042179 | 18.33° C | 70% | 1010.8 hPa | 0 mm | 0.89 m/s, 163° | 0 W/m² | - |
| 1778041877 | 18.33° C | 70% | 1010.8 hPa | 0 mm | 1.79 m/s, 194° | 0 W/m² | - |
| 1778041578 | 18.33° C | 69% | 1010.8 hPa | 0 mm | 1.34 m/s, 174° | 0 W/m² | - |
| 1778041277 | 18.33° C | 68% | 1010.8 hPa | 0 mm | 2.24 m/s, 184° | 0 W/m² | - |
| 1778040977 | 18.33° C | 68% | 1010.9 hPa | 0 mm | 2.68 m/s, 191° | 0 W/m² | - |
| 1778040678 | 18.33° C | 68% | 1010.8 hPa | 0 mm | 1.34 m/s, 190° | 0 W/m² | - |
| 1778040378 | 18.33° C | 69% | 1010.8 hPa | 0 mm | 1.79 m/s, 191° | 0 W/m² | - |
| 1778040078 | 18.33° C | 70% | 1010.6 hPa | 0 mm | 2.24 m/s, 180° | 0 W/m² | - |
| 1778039778 | 18.33° C | 71% | 1010.7 hPa | 0 mm | 2.24 m/s, 160° | 0 W/m² | - |
| 1778039481 | 18.33° C | 71% | 1010.7 hPa | 0 mm | 1.79 m/s, 191° | 0 W/m² | - |
| 1778039178 | 18.89° C | 70% | 1010.7 hPa | 0 mm | 1.34 m/s, 186° | 0 W/m² | - |
| 1778038877 | 18.89° C | 68% | 1010.8 hPa | 0 mm | 2.24 m/s, 197° | 0 W/m² | - |
| 1778038578 | 18.89° C | 67% | 1010.9 hPa | 0 mm | 1.34 m/s, 220° | 0 W/m² | - |
| 1778038280 | 18.89° C | 68% | 1010.9 hPa | 0 mm | 1.79 m/s, 224° | 0 W/m² | - |
| 1778037978 | 18.89° C | 68% | 1011.1 hPa | 0 mm | 0.89 m/s, 221° | 0 W/m² | - |
| 1778037678 | 18.33° C | 69% | 1011.2 hPa | 0 mm | 0.89 m/s, 228° | 0 W/m² | - |
| 1778037377 | 18.33° C | 69% | 1011 hPa | 0 mm | 1.79 m/s, 207° | 0 W/m² | - |
| 1778037078 | 18.33° C | 70% | 1011.2 hPa | 0 mm | 1.34 m/s, 225° | 0 W/m² | - |
* Rain latest hour (hover to see other rain measurements)
** Current wind speed in m/s (hover to see current wind gust speed)